sensor_id;sensor_type;location;lat;lon;timestamp;temperature;humidity
11599;DHT22;5855;48.840;9.188;2023-05-07T00:00:35;14.30;99.90
11599;DHT22;5855;48.840;9.188;2023-05-07T00:03:02;14.30;99.90
11599;DHT22;5855;48.840;9.188;2023-05-07T00:05:29;14.20;99.90
11599;DHT22;5855;48.840;9.188;2023-05-07T00:07:56;14.30;99.90
11599;DHT22;5855;48.840;9.188;2023-05-07T00:10:23;14.20;99.90
11599;DHT22;5855;48.840;9.188;2023-05-07T00:12:50;14.30;99.90
11599;DHT22;5855;48.840;9.188;2023-05-07T00:15:19;14.20;99.90
11599;DHT22;5855;48.840;9.188;2023-05-07T00:17:45;14.10;99.90
11599;DHT22;5855;48.840;9.188;2023-05-07T00:20:12;14.10;99.90
11599;DHT22;5855;48.840;9.188;2023-05-07T00:22:39;14.10;99.90
11599;DHT22;5855;48.840;9.188;2023-05-07T00:25:06;14.10;99.90
11599;DHT22;5855;48.840;9.188;2023-05-07T00:27:33;14.00;99.90
11599;DHT22;5855;48.840;9.188;2023-05-07T00:30:00;14.00;99.90
11599;DHT22;5855;48.840;9.188;2023-05-07T00:32:28;14.00;99.90
11599;DHT22;5855;48.840;9.188;2023-05-07T00:34:55;14.00;99.90
11599;DHT22;5855;48.840;9.188;2023-05-07T00:37:22;14.00;99.90
11599;DHT22;5855;48.840;9.188;2023-05-07T00:39:49;14.00;99.90
11599;DHT22;5855;48.840;9.188;2023-05-07T00:42:15;13.90;99.90
11599;DHT22;5855;48.840;9.188;2023-05-07T00:44:42;13.90;99.90
11599;DHT22;5855;48.840;9.188;2023-05-07T00:47:09;13.90;99.90
11599;DHT22;5855;48.840;9.188;2023-05-07T00:49:41;13.90;99.90
11599;DHT22;5855;48.840;9.188;2023-05-07T00:52:09;13.80;99.90
11599;DHT22;5855;48.840;9.188;2023-05-07T00:54:37;13.80;99.90
11599;DHT22;5855;48.840;9.188;2023-05-07T00:57:05;13.80;99.90
11599;DHT22;5855;48.840;9.188;2023-05-07T00:59:32;13.80;99.90
11599;DHT22;5855;48.840;9.188;2023-05-07T01:02:00;13.80;99.90
11599;DHT22;5855;48.840;9.188;2023-05-07T01:04:27;13.80;99.90
11599;DHT22;5855;48.840;9.188;2023-05-07T01:06:56;13.70;99.90
11599;DHT22;5855;48.840;9.188;2023-05-07T01:09:24;13.60;99.90
11599;DHT22;5855;48.840;9.188;2023-05-07T01:11:51;13.70;99.90
11599;DHT22;5855;48.840;9.188;2023-05-07T01:14:19;13.60;99.90
11599;DHT22;5855;48.840;9.188;2023-05-07T01:16:47;13.60;99.90
11599;DHT22;5855;48.840;9.188;2023-05-07T01:19:15;13.60;99.90
11599;DHT22;5855;48.840;9.188;2023-05-07T01:21:47;13.60;99.90
11599;DHT22;5855;48.840;9.188;2023-05-07T01:24:15;13.60;99.90
11599;DHT22;5855;48.840;9.188;2023-05-07T01:26:43;13.50;99.90
11599;DHT22;5855;48.840;9.188;2023-05-07T01:29:10;13.50;99.90
11599;DHT22;5855;48.840;9.188;2023-05-07T01:31:37;13.50;99.90
11599;DHT22;5855;48.840;9.188;2023-05-07T01:34:07;13.40;99.90
11599;DHT22;5855;48.840;9.188;2023-05-07T01:36:35;13.40;99.90
11599;DHT22;5855;48.840;9.188;2023-05-07T01:39:03;13.40;99.90
11599;DHT22;5855;48.840;9.188;2023-05-07T01:41:32;13.40;99.90
11599;DHT22;5855;48.840;9.188;2023-05-07T01:44:00;13.40;99.90
11599;DHT22;5855;48.840;9.188;2023-05-07T01:46:28;13.40;99.90
11599;DHT22;5855;48.840;9.188;2023-05-07T01:48:55;13.40;99.90
11599;DHT22;5855;48.840;9.188;2023-05-07T01:51:22;13.40;99.90
11599;DHT22;5855;48.840;9.188;2023-05-07T01:53:49;13.30;99.90
11599;DHT22;5855;48.840;9.188;2023-05-07T01:56:17;13.30;99.90
11599;DHT22;5855;48.840;9.188;2023-05-07T01:58:46;13.30;99.90
11599;DHT22;5855;48.840;9.188;2023-05-07T02:01:13;13.30;99.90
11599;DHT22;5855;48.840;9.188;2023-05-07T02:03:40;13.30;99.90
11599;DHT22;5855;48.840;9.188;2023-05-07T02:06:07;13.30;99.90
11599;DHT22;5855;48.840;9.188;2023-05-07T02:08:34;13.30;99.90
11599;DHT22;5855;48.840;9.188;2023-05-07T02:11:01;13.20;99.90
11599;DHT22;5855;48.840;9.188;2023-05-07T02:13:29;13.20;99.90
11599;DHT22;5855;48.840;9.188;2023-05-07T02:15:58;13.20;99.90
11599;DHT22;5855;48.840;9.188;2023-05-07T02:18:25;13.20;99.90
11599;DHT22;5855;48.840;9.188;2023-05-07T02:20:52;13.10;99.90
11599;DHT22;5855;48.840;9.188;2023-05-07T02:23:18;13.10;99.90
11599;DHT22;5855;48.840;9.188;2023-05-07T02:25:45;13.20;99.90
11599;DHT22;5855;48.840;9.188;2023-05-07T02:28:12;13.10;99.90
11599;DHT22;5855;48.840;9.188;2023-05-07T02:30:39;13.10;99.90
11599;DHT22;5855;48.840;9.188;2023-05-07T02:33:07;13.10;99.90
11599;DHT22;5855;48.840;9.188;2023-05-07T02:35:35;13.10;99.90
11599;DHT22;5855;48.840;9.188;2023-05-07T02:38:02;13.00;99.90
11599;DHT22;5855;48.840;9.188;2023-05-07T02:40:28;13.10;99.90
11599;DHT22;5855;48.840;9.188;2023-05-07T02:42:59;13.00;99.90
11599;DHT22;5855;48.840;9.188;2023-05-07T02:45:25;13.00;99.90
11599;DHT22;5855;48.840;9.188;2023-05-07T02:47:52;13.00;99.90
11599;DHT22;5855;48.840;9.188;2023-05-07T02:50:20;13.00;99.90
11599;DHT22;5855;48.840;9.188;2023-05-07T02:52:47;13.00;99.90
11599;DHT22;5855;48.840;9.188;2023-05-07T02:55:14;13.00;99.90
11599;DHT22;5855;48.840;9.188;2023-05-07T02:57:41;12.80;99.90
11599;DHT22;5855;48.840;9.188;2023-05-07T03:00:12;12.80;99.90
11599;DHT22;5855;48.840;9.188;2023-05-07T03:02:40;12.70;99.90
11599;DHT22;5855;48.840;9.188;2023-05-07T03:05:07;12.60;99.90
11599;DHT22;5855;48.840;9.188;2023-05-07T03:07:35;12.60;99.90
11599;DHT22;5855;48.840;9.188;2023-05-07T03:10:02;12.60;99.90
11599;DHT22;5855;48.840;9.188;2023-05-07T03:12:29;12.50;99.90
11599;DHT22;5855;48.840;9.188;2023-05-07T03:14:56;12.50;99.90
11599;DHT22;5855;48.840;9.188;2023-05-07T03:17:23;12.40;99.90
11599;DHT22;5855;48.840;9.188;2023-05-07T03:19:50;12.40;99.90
11599;DHT22;5855;48.840;9.188;2023-05-07T03:22:17;12.30;99.90
11599;DHT22;5855;48.840;9.188;2023-05-07T03:24:45;12.30;99.90
11599;DHT22;5855;48.840;9.188;2023-05-07T03:27:12;12.20;99.90
11599;DHT22;5855;48.840;9.188;2023-05-07T03:29:38;12.20;99.90
11599;DHT22;5855;48.840;9.188;2023-05-07T03:32:05;12.20;99.90
11599;DHT22;5855;48.840;9.188;2023-05-07T03:34:32;12.20;99.90
11599;DHT22;5855;48.840;9.188;2023-05-07T03:36:59;12.20;99.90
11599;DHT22;5855;48.840;9.188;2023-05-07T03:39:26;12.10;99.90
11599;DHT22;5855;48.840;9.188;2023-05-07T03:41:55;12.10;99.90
11599;DHT22;5855;48.840;9.188;2023-05-07T03:44:21;12.10;99.90
11599;DHT22;5855;48.840;9.188;2023-05-07T03:46:48;12.00;99.90
11599;DHT22;5855;48.840;9.188;2023-05-07T03:49:15;12.00;99.90
11599;DHT22;5855;48.840;9.188;2023-05-07T03:51:42;12.00;99.90
11599;DHT22;5855;48.840;9.188;2023-05-07T03:54:08;11.90;99.90
11599;DHT22;5855;48.840;9.188;2023-05-07T03:56:35;11.90;99.90
11599;DHT22;5855;48.840;9.188;2023-05-07T03:59:03;11.90;99.90
11599;DHT22;5855;48.840;9.188;2023-05-07T04:01:30;11.90;99.90
11599;DHT22;5855;48.840;9.188;2023-05-07T04:03:57;11.80;99.90
11599;DHT22;5855;48.840;9.188;2023-05-07T04:06:24;11.80;99.90
11599;DHT22;5855;48.840;9.188;2023-05-07T04:08:51;11.80;99.90
11599;DHT22;5855;48.840;9.188;2023-05-07T04:11:18;11.80;99.90
11599;DHT22;5855;48.840;9.188;2023-05-07T04:13:45;11.80;99.90
11599;DHT22;5855;48.840;9.188;2023-05-07T04:16:14;11.80;99.90
11599;DHT22;5855;48.840;9.188;2023-05-07T04:18:41;11.80;99.90
11599;DHT22;5855;48.840;9.188;2023-05-07T04:21:14;11.80;99.90
11599;DHT22;5855;48.840;9.188;2023-05-07T04:23:40;11.80;99.90
11599;DHT22;5855;48.840;9.188;2023-05-07T04:26:07;11.80;99.90
11599;DHT22;5855;48.840;9.188;2023-05-07T04:28:34;11.80;99.90
11599;DHT22;5855;48.840;9.188;2023-05-07T04:31:01;11.80;99.90
11599;DHT22;5855;48.840;9.188;2023-05-07T04:33:30;11.90;99.90
11599;DHT22;5855;48.840;9.188;2023-05-07T04:35:57;11.90;99.90
11599;DHT22;5855;48.840;9.188;2023-05-07T04:38:28;11.90;99.90
11599;DHT22;5855;48.840;9.188;2023-05-07T04:40:55;12.00;99.90
11599;DHT22;5855;48.840;9.188;2023-05-07T04:43:22;12.00;99.90
11599;DHT22;5855;48.840;9.188;2023-05-07T04:45:50;12.10;99.90
11599;DHT22;5855;48.840;9.188;2023-05-07T04:48:17;12.10;99.90
11599;DHT22;5855;48.840;9.188;2023-05-07T04:50:47;12.20;99.90
11599;DHT22;5855;48.840;9.188;2023-05-07T04:53:14;12.10;99.90
11599;DHT22;5855;48.840;9.188;2023-05-07T04:55:41;12.20;99.90
11599;DHT22;5855;48.840;9.188;2023-05-07T04:58:08;12.20;99.90
11599;DHT22;5855;48.840;9.188;2023-05-07T05:00:35;12.20;99.90
11599;DHT22;5855;48.840;9.188;2023-05-07T05:03:02;12.20;99.90
11599;DHT22;5855;48.840;9.188;2023-05-07T05:05:29;12.20;99.90
11599;DHT22;5855;48.840;9.188;2023-05-07T05:07:57;12.30;99.90
11599;DHT22;5855;48.840;9.188;2023-05-07T05:10:24;12.30;99.90
11599;DHT22;5855;48.840;9.188;2023-05-07T05:12:51;12.40;99.90
11599;DHT22;5855;48.840;9.188;2023-05-07T05:15:18;12.40;99.90
11599;DHT22;5855;48.840;9.188;2023-05-07T05:17:44;12.50;99.90
11599;DHT22;5855;48.840;9.188;2023-05-07T05:20:11;12.60;99.90
11599;DHT22;5855;48.840;9.188;2023-05-07T05:22:38;12.70;99.90
11599;DHT22;5855;48.840;9.188;2023-05-07T05:25:07;12.80;99.90
11599;DHT22;5855;48.840;9.188;2023-05-07T05:27:34;12.80;99.90
11599;DHT22;5855;48.840;9.188;2023-05-07T05:30:01;12.90;99.90
11599;DHT22;5855;48.840;9.188;2023-05-07T05:32:28;13.00;99.90
11599;DHT22;5855;48.840;9.188;2023-05-07T05:34:55;13.10;99.90
11599;DHT22;5855;48.840;9.188;2023-05-07T05:37:22;13.20;99.90
11599;DHT22;5855;48.840;9.188;2023-05-07T05:39:48;13.30;99.90
11599;DHT22;5855;48.840;9.188;2023-05-07T05:42:17;13.40;99.90
11599;DHT22;5855;48.840;9.188;2023-05-07T05:44:43;13.50;99.90
11599;DHT22;5855;48.840;9.188;2023-05-07T05:47:10;13.60;99.90
11599;DHT22;5855;48.840;9.188;2023-05-07T05:49:37;13.70;99.90
11599;DHT22;5855;48.840;9.188;2023-05-07T05:52:04;13.70;99.90
11599;DHT22;5855;48.840;9.188;2023-05-07T05:54:31;13.90;99.90
11599;DHT22;5855;48.840;9.188;2023-05-07T05:56:58;14.00;99.90
11599;DHT22;5855;48.840;9.188;2023-05-07T05:59:26;14.20;99.90
11599;DHT22;5855;48.840;9.188;2023-05-07T06:01:53;14.40;99.90
11599;DHT22;5855;48.840;9.188;2023-05-07T06:04:19;14.60;99.90
11599;DHT22;5855;48.840;9.188;2023-05-07T06:06:46;14.80;99.90
11599;DHT22;5855;48.840;9.188;2023-05-07T06:09:13;15.10;99.90
11599;DHT22;5855;48.840;9.188;2023-05-07T06:11:40;15.30;99.90
11599;DHT22;5855;48.840;9.188;2023-05-07T06:14:07;15.50;99.90
11599;DHT22;5855;48.840;9.188;2023-05-07T06:16:35;15.60;99.90
11599;DHT22;5855;48.840;9.188;2023-05-07T06:19:03;15.70;99.90
11599;DHT22;5855;48.840;9.188;2023-05-07T06:21:30;15.80;99.90
11599;DHT22;5855;48.840;9.188;2023-05-07T06:23:57;16.00;99.90
11599;DHT22;5855;48.840;9.188;2023-05-07T06:26:24;16.10;99.90
11599;DHT22;5855;48.840;9.188;2023-05-07T06:28:51;16.10;99.90
11599;DHT22;5855;48.840;9.188;2023-05-07T06:31:19;16.20;99.90
11599;DHT22;5855;48.840;9.188;2023-05-07T06:33:49;16.20;99.90
11599;DHT22;5855;48.840;9.188;2023-05-07T06:36:16;16.30;99.90
11599;DHT22;5855;48.840;9.188;2023-05-07T06:38:43;16.30;99.90
11599;DHT22;5855;48.840;9.188;2023-05-07T06:41:09;16.30;99.90
11599;DHT22;5855;48.840;9.188;2023-05-07T06:43:36;16.40;99.90
11599;DHT22;5855;48.840;9.188;2023-05-07T06:46:03;16.40;99.90
11599;DHT22;5855;48.840;9.188;2023-05-07T06:48:30;16.50;99.90
11599;DHT22;5855;48.840;9.188;2023-05-07T06:50:58;16.50;99.90
11599;DHT22;5855;48.840;9.188;2023-05-07T06:53:26;16.60;99.90
11599;DHT22;5855;48.840;9.188;2023-05-07T06:55:53;16.80;99.90
11599;DHT22;5855;48.840;9.188;2023-05-07T06:58:20;17.00;99.90
11599;DHT22;5855;48.840;9.188;2023-05-07T07:00:47;17.00;99.90
11599;DHT22;5855;48.840;9.188;2023-05-07T07:03:14;17.10;99.90
11599;DHT22;5855;48.840;9.188;2023-05-07T07:05:41;17.30;99.90
11599;DHT22;5855;48.840;9.188;2023-05-07T07:08:10;17.40;99.90
11599;DHT22;5855;48.840;9.188;2023-05-07T07:10:36;17.60;99.90
11599;DHT22;5855;48.840;9.188;2023-05-07T07:13:03;17.80;99.90
11599;DHT22;5855;48.840;9.188;2023-05-07T07:15:30;17.90;99.90
11599;DHT22;5855;48.840;9.188;2023-05-07T07:17:57;18.20;99.90
11599;DHT22;5855;48.840;9.188;2023-05-07T07:20:24;18.40;99.90
11599;DHT22;5855;48.840;9.188;2023-05-07T07:22:50;18.50;99.90
11599;DHT22;5855;48.840;9.188;2023-05-07T07:25:19;18.80;99.90
11599;DHT22;5855;48.840;9.188;2023-05-07T07:27:45;19.00;99.90
11599;DHT22;5855;48.840;9.188;2023-05-07T07:30:12;19.30;99.90
11599;DHT22;5855;48.840;9.188;2023-05-07T07:32:39;19.50;99.90
11599;DHT22;5855;48.840;9.188;2023-05-07T07:35:07;19.60;99.90
11599;DHT22;5855;48.840;9.188;2023-05-07T07:37:34;19.70;99.90
11599;DHT22;5855;48.840;9.188;2023-05-07T07:40:01;19.90;99.90
11599;DHT22;5855;48.840;9.188;2023-05-07T07:42:30;20.20;99.90
11599;DHT22;5855;48.840;9.188;2023-05-07T07:44:57;20.40;99.90
11599;DHT22;5855;48.840;9.188;2023-05-07T07:47:23;20.60;99.90
11599;DHT22;5855;48.840;9.188;2023-05-07T07:49:50;20.90;99.90
11599;DHT22;5855;48.840;9.188;2023-05-07T07:52:18;21.10;99.90
11599;DHT22;5855;48.840;9.188;2023-05-07T07:54:45;21.30;99.90
11599;DHT22;5855;48.840;9.188;2023-05-07T07:57:12;21.40;99.90
11599;DHT22;5855;48.840;9.188;2023-05-07T07:59:40;21.50;99.90
11599;DHT22;5855;48.840;9.188;2023-05-07T08:02:08;21.40;99.90
11599;DHT22;5855;48.840;9.188;2023-05-07T08:04:35;21.50;99.90
11599;DHT22;5855;48.840;9.188;2023-05-07T08:07:02;21.70;99.90
11599;DHT22;5855;48.840;9.188;2023-05-07T08:09:29;21.70;99.90
11599;DHT22;5855;48.840;9.188;2023-05-07T08:11:56;21.80;99.90
11599;DHT22;5855;48.840;9.188;2023-05-07T08:14:23;21.90;99.90
11599;DHT22;5855;48.840;9.188;2023-05-07T08:16:52;22.00;99.90
11599;DHT22;5855;48.840;9.188;2023-05-07T08:19:19;22.10;99.90
11599;DHT22;5855;48.840;9.188;2023-05-07T08:21:47;22.30;99.90
11599;DHT22;5855;48.840;9.188;2023-05-07T08:24:15;22.40;99.90
11599;DHT22;5855;48.840;9.188;2023-05-07T08:26:41;22.50;99.90
11599;DHT22;5855;48.840;9.188;2023-05-07T08:29:08;22.60;99.90
11599;DHT22;5855;48.840;9.188;2023-05-07T08:31:35;22.70;99.90
11599;DHT22;5855;48.840;9.188;2023-05-07T08:34:05;22.70;99.90
11599;DHT22;5855;48.840;9.188;2023-05-07T08:36:32;22.70;99.90
11599;DHT22;5855;48.840;9.188;2023-05-07T08:38:59;22.70;99.90
11599;DHT22;5855;48.840;9.188;2023-05-07T08:41:26;22.60;99.90
11599;DHT22;5855;48.840;9.188;2023-05-07T08:43:55;22.60;99.90
11599;DHT22;5855;48.840;9.188;2023-05-07T08:46:25;22.70;99.90
11599;DHT22;5855;48.840;9.188;2023-05-07T08:48:52;22.80;99.90
11599;DHT22;5855;48.840;9.188;2023-05-07T08:51:23;22.90;99.90
11599;DHT22;5855;48.840;9.188;2023-05-07T08:53:51;23.10;99.90
11599;DHT22;5855;48.840;9.188;2023-05-07T08:56:18;23.30;99.90
11599;DHT22;5855;48.840;9.188;2023-05-07T08:58:45;23.50;99.90
11599;DHT22;5855;48.840;9.188;2023-05-07T09:01:14;23.80;99.90
11599;DHT22;5855;48.840;9.188;2023-05-07T09:03:43;24.00;99.90
11599;DHT22;5855;48.840;9.188;2023-05-07T09:06:11;24.30;99.90
11599;DHT22;5855;48.840;9.188;2023-05-07T09:08:39;24.60;99.90
11599;DHT22;5855;48.840;9.188;2023-05-07T09:11:06;24.80;99.90
11599;DHT22;5855;48.840;9.188;2023-05-07T09:13:33;25.00;99.90
11599;DHT22;5855;48.840;9.188;2023-05-07T09:16:13;25.20;99.90
11599;DHT22;5855;48.840;9.188;2023-05-07T09:18:43;25.50;99.90
11599;DHT22;5855;48.840;9.188;2023-05-07T09:21:15;25.60;99.90
11599;DHT22;5855;48.840;9.188;2023-05-07T09:23:44;25.90;99.90
11599;DHT22;5855;48.840;9.188;2023-05-07T09:26:11;26.10;99.90
11599;DHT22;5855;48.840;9.188;2023-05-07T09:28:39;26.20;99.60
11599;DHT22;5855;48.840;9.188;2023-05-07T09:31:07;26.20;99.00
11599;DHT22;5855;48.840;9.188;2023-05-07T09:33:35;25.60;99.20
11599;DHT22;5855;48.840;9.188;2023-05-07T09:36:06;25.60;99.50
11599;DHT22;5855;48.840;9.188;2023-05-07T09:38:35;25.80;99.40
11599;DHT22;5855;48.840;9.188;2023-05-07T09:41:05;25.70;99.30
11599;DHT22;5855;48.840;9.188;2023-05-07T09:43:33;26.10;99.10
11599;DHT22;5855;48.840;9.188;2023-05-07T09:46:08;26.20;97.80
11599;DHT22;5855;48.840;9.188;2023-05-07T09:48:43;26.20;98.50
11599;DHT22;5855;48.840;9.188;2023-05-07T09:51:18;26.50;98.50
11599;DHT22;5855;48.840;9.188;2023-05-07T09:53:49;27.00;97.70
11599;DHT22;5855;48.840;9.188;2023-05-07T09:56:19;27.30;97.40
11599;DHT22;5855;48.840;9.188;2023-05-07T09:58:47;27.60;96.00
11599;DHT22;5855;48.840;9.188;2023-05-07T10:01:17;27.80;96.00
11599;DHT22;5855;48.840;9.188;2023-05-07T10:03:45;28.10;95.40
11599;DHT22;5855;48.840;9.188;2023-05-07T10:06:13;28.50;94.30
11599;DHT22;5855;48.840;9.188;2023-05-07T10:08:42;28.70;93.90
11599;DHT22;5855;48.840;9.188;2023-05-07T10:11:10;29.10;92.50
11599;DHT22;5855;48.840;9.188;2023-05-07T10:13:38;29.30;91.70
11599;DHT22;5855;48.840;9.188;2023-05-07T10:16:08;29.60;91.90
11599;DHT22;5855;48.840;9.188;2023-05-07T10:18:38;29.40;89.50
11599;DHT22;5855;48.840;9.188;2023-05-07T10:21:08;29.20;88.30
11599;DHT22;5855;48.840;9.188;2023-05-07T10:23:35;28.80;87.30
11599;DHT22;5855;48.840;9.188;2023-05-07T10:26:05;28.80;89.30
11599;DHT22;5855;48.840;9.188;2023-05-07T10:28:38;29.20;87.10
11599;DHT22;5855;48.840;9.188;2023-05-07T10:31:30;29.30;86.10
11599;DHT22;5855;48.840;9.188;2023-05-07T10:34:02;29.50;85.40
11599;DHT22;5855;48.840;9.188;2023-05-07T10:36:29;29.90;85.30
11599;DHT22;5855;48.840;9.188;2023-05-07T10:38:56;30.30;82.90
11599;DHT22;5855;48.840;9.188;2023-05-07T10:41:23;29.90;82.20
11599;DHT22;5855;48.840;9.188;2023-05-07T10:43:51;29.80;80.30
11599;DHT22;5855;48.840;9.188;2023-05-07T10:46:20;29.40;80.20
11599;DHT22;5855;48.840;9.188;2023-05-07T10:49:09;29.20;82.80
11599;DHT22;5855;48.840;9.188;2023-05-07T10:51:37;29.30;84.30
11599;DHT22;5855;48.840;9.188;2023-05-07T10:54:23;29.40;84.80
11599;DHT22;5855;48.840;9.188;2023-05-07T10:56:50;29.70;84.60
11599;DHT22;5855;48.840;9.188;2023-05-07T10:59:37;30.00;83.70
11599;DHT22;5855;48.840;9.188;2023-05-07T11:02:09;30.50;83.50
11599;DHT22;5855;48.840;9.188;2023-05-07T11:04:37;31.00;81.60
11599;DHT22;5855;48.840;9.188;2023-05-07T11:07:25;31.20;79.50
11599;DHT22;5855;48.840;9.188;2023-05-07T11:10:00;31.30;78.20
11599;DHT22;5855;48.840;9.188;2023-05-07T11:12:52;31.20;77.90
11599;DHT22;5855;48.840;9.188;2023-05-07T11:15:41;30.80;77.40
11599;DHT22;5855;48.840;9.188;2023-05-07T11:18:09;30.60;77.60
11599;DHT22;5855;48.840;9.188;2023-05-07T11:20:59;30.30;77.00
11599;DHT22;5855;48.840;9.188;2023-05-07T11:26:43;29.90;79.40
11599;DHT22;5855;48.840;9.188;2023-05-07T11:29:14;29.60;78.90
11599;DHT22;5855;48.840;9.188;2023-05-07T11:31:43;29.30;79.80
11599;DHT22;5855;48.840;9.188;2023-05-07T11:34:11;29.00;81.90
11599;DHT22;5855;48.840;9.188;2023-05-07T11:36:42;28.70;83.70
11599;DHT22;5855;48.840;9.188;2023-05-07T11:39:27;28.60;85.50
11599;DHT22;5855;48.840;9.188;2023-05-07T11:41:54;28.40;85.20
11599;DHT22;5855;48.840;9.188;2023-05-07T11:44:21;28.20;84.90
11599;DHT22;5855;48.840;9.188;2023-05-07T11:46:50;28.00;85.90
11599;DHT22;5855;48.840;9.188;2023-05-07T11:49:17;27.70;87.20
11599;DHT22;5855;48.840;9.188;2023-05-07T11:51:44;27.50;88.40
11599;DHT22;5855;48.840;9.188;2023-05-07T11:54:16;27.20;88.40
11599;DHT22;5855;48.840;9.188;2023-05-07T11:56:44;27.00;88.70
11599;DHT22;5855;48.840;9.188;2023-05-07T11:59:11;26.70;90.50
11599;DHT22;5855;48.840;9.188;2023-05-07T12:01:38;26.50;90.80
11599;DHT22;5855;48.840;9.188;2023-05-07T12:04:06;26.40;91.20
11599;DHT22;5855;48.840;9.188;2023-05-07T12:06:36;26.10;91.70
11599;DHT22;5855;48.840;9.188;2023-05-07T12:09:04;25.80;91.30
11599;DHT22;5855;48.840;9.188;2023-05-07T12:11:32;25.60;91.80
11599;DHT22;5855;48.840;9.188;2023-05-07T12:14:00;25.50;91.80
11599;DHT22;5855;48.840;9.188;2023-05-07T12:16:29;25.30;92.20
11599;DHT22;5855;48.840;9.188;2023-05-07T12:18:57;25.10;92.40
11599;DHT22;5855;48.840;9.188;2023-05-07T12:21:26;25.00;93.00
11599;DHT22;5855;48.840;9.188;2023-05-07T12:23:53;24.80;93.60
11599;DHT22;5855;48.840;9.188;2023-05-07T12:26:20;24.70;93.90
11599;DHT22;5855;48.840;9.188;2023-05-07T12:28:47;24.60;93.70
11599;DHT22;5855;48.840;9.188;2023-05-07T12:31:15;24.50;94.40
11599;DHT22;5855;48.840;9.188;2023-05-07T12:33:42;24.40;94.80
11599;DHT22;5855;48.840;9.188;2023-05-07T12:36:12;24.30;96.10
11599;DHT22;5855;48.840;9.188;2023-05-07T12:38:41;24.00;96.70
11599;DHT22;5855;48.840;9.188;2023-05-07T12:41:09;23.70;98.40
11599;DHT22;5855;48.840;9.188;2023-05-07T12:43:38;23.30;99.90
11599;DHT22;5855;48.840;9.188;2023-05-07T12:46:06;22.50;99.90
11599;DHT22;5855;48.840;9.188;2023-05-07T12:48:37;21.60;99.90
11599;DHT22;5855;48.840;9.188;2023-05-07T12:51:06;21.00;99.90
11599;DHT22;5855;48.840;9.188;2023-05-07T12:53:41;20.60;99.90
11599;DHT22;5855;48.840;9.188;2023-05-07T12:56:08;19.90;99.90
11599;DHT22;5855;48.840;9.188;2023-05-07T12:58:36;19.70;99.90
11599;DHT22;5855;48.840;9.188;2023-05-07T13:01:06;19.50;99.90
11599;DHT22;5855;48.840;9.188;2023-05-07T13:03:34;19.10;99.90
11599;DHT22;5855;48.840;9.188;2023-05-07T13:06:04;18.80;99.90
11599;DHT22;5855;48.840;9.188;2023-05-07T13:08:32;18.50;99.90
11599;DHT22;5855;48.840;9.188;2023-05-07T13:11:02;18.30;99.90
11599;DHT22;5855;48.840;9.188;2023-05-07T13:13:30;18.00;99.90
11599;DHT22;5855;48.840;9.188;2023-05-07T13:15:57;17.90;99.90
11599;DHT22;5855;48.840;9.188;2023-05-07T13:18:24;17.80;99.90
11599;DHT22;5855;48.840;9.188;2023-05-07T13:20:51;17.90;99.90
11599;DHT22;5855;48.840;9.188;2023-05-07T13:23:18;18.00;99.90
11599;DHT22;5855;48.840;9.188;2023-05-07T13:25:45;17.90;99.90
11599;DHT22;5855;48.840;9.188;2023-05-07T13:28:13;17.80;99.90
11599;DHT22;5855;48.840;9.188;2023-05-07T13:30:40;17.80;99.90
11599;DHT22;5855;48.840;9.188;2023-05-07T13:33:07;17.70;99.90
11599;DHT22;5855;48.840;9.188;2023-05-07T13:35:34;17.40;99.90
11599;DHT22;5855;48.840;9.188;2023-05-07T13:38:01;17.10;99.90
11599;DHT22;5855;48.840;9.188;2023-05-07T13:40:28;16.70;99.90
11599;DHT22;5855;48.840;9.188;2023-05-07T13:42:57;16.50;99.90
11599;DHT22;5855;48.840;9.188;2023-05-07T13:45:25;16.40;99.90
11599;DHT22;5855;48.840;9.188;2023-05-07T13:47:52;16.30;99.90
11599;DHT22;5855;48.840;9.188;2023-05-07T13:50:19;16.20;99.90
11599;DHT22;5855;48.840;9.188;2023-05-07T13:52:46;16.20;99.90
11599;DHT22;5855;48.840;9.188;2023-05-07T13:55:16;16.30;99.90
11599;DHT22;5855;48.840;9.188;2023-05-07T13:57:43;16.30;99.90
11599;DHT22;5855;48.840;9.188;2023-05-07T14:00:11;16.30;99.90
11599;DHT22;5855;48.840;9.188;2023-05-07T14:02:40;16.40;99.90
11599;DHT22;5855;48.840;9.188;2023-05-07T14:05:07;16.40;99.90
11599;DHT22;5855;48.840;9.188;2023-05-07T14:07:34;16.40;99.90
11599;DHT22;5855;48.840;9.188;2023-05-07T14:10:01;16.40;99.90
11599;DHT22;5855;48.840;9.188;2023-05-07T14:12:28;16.40;99.90
11599;DHT22;5855;48.840;9.188;2023-05-07T14:14:55;16.50;99.90
11599;DHT22;5855;48.840;9.188;2023-05-07T14:17:22;16.60;99.90
11599;DHT22;5855;48.840;9.188;2023-05-07T14:19:52;16.60;99.90
11599;DHT22;5855;48.840;9.188;2023-05-07T14:22:20;16.40;99.90
11599;DHT22;5855;48.840;9.188;2023-05-07T14:24:47;16.30;99.90
11599;DHT22;5855;48.840;9.188;2023-05-07T14:27:14;16.20;99.90
11599;DHT22;5855;48.840;9.188;2023-05-07T14:29:41;16.20;99.90
11599;DHT22;5855;48.840;9.188;2023-05-07T14:32:16;16.10;99.90
11599;DHT22;5855;48.840;9.188;2023-05-07T14:34:43;16.10;99.90
11599;DHT22;5855;48.840;9.188;2023-05-07T14:37:12;16.10;99.90
11599;DHT22;5855;48.840;9.188;2023-05-07T14:39:39;16.10;99.90
11599;DHT22;5855;48.840;9.188;2023-05-07T14:42:10;16.10;99.90
11599;DHT22;5855;48.840;9.188;2023-05-07T14:44:38;16.00;99.90
11599;DHT22;5855;48.840;9.188;2023-05-07T14:47:05;16.00;99.90
11599;DHT22;5855;48.840;9.188;2023-05-07T14:49:33;16.00;99.90
11599;DHT22;5855;48.840;9.188;2023-05-07T14:52:00;16.00;99.90
11599;DHT22;5855;48.840;9.188;2023-05-07T14:54:28;16.00;99.90
11599;DHT22;5855;48.840;9.188;2023-05-07T14:56:55;16.10;99.90
11599;DHT22;5855;48.840;9.188;2023-05-07T14:59:22;16.10;99.90
11599;DHT22;5855;48.840;9.188;2023-05-07T15:01:50;16.10;99.90
11599;DHT22;5855;48.840;9.188;2023-05-07T15:04:17;16.30;99.90
11599;DHT22;5855;48.840;9.188;2023-05-07T15:06:44;16.50;99.90
11599;DHT22;5855;48.840;9.188;2023-05-07T15:09:11;16.50;99.90
11599;DHT22;5855;48.840;9.188;2023-05-07T15:11:40;16.50;99.90
11599;DHT22;5855;48.840;9.188;2023-05-07T15:14:07;16.50;99.90
11599;DHT22;5855;48.840;9.188;2023-05-07T15:16:33;16.60;99.90
11599;DHT22;5855;48.840;9.188;2023-05-07T15:19:04;16.70;99.90
11599;DHT22;5855;48.840;9.188;2023-05-07T15:21:31;16.80;99.90
11599;DHT22;5855;48.840;9.188;2023-05-07T15:24:00;16.90;99.90
11599;DHT22;5855;48.840;9.188;2023-05-07T15:26:27;17.00;99.90
11599;DHT22;5855;48.840;9.188;2023-05-07T15:28:55;17.10;99.90
11599;DHT22;5855;48.840;9.188;2023-05-07T15:31:23;17.20;99.90
11599;DHT22;5855;48.840;9.188;2023-05-07T15:33:50;17.40;99.90
11599;DHT22;5855;48.840;9.188;2023-05-07T15:36:17;17.50;99.90
11599;DHT22;5855;48.840;9.188;2023-05-07T15:38:54;17.60;99.90
11599;DHT22;5855;48.840;9.188;2023-05-07T15:41:21;17.70;99.90
11599;DHT22;5855;48.840;9.188;2023-05-07T15:43:50;17.80;99.90
11599;DHT22;5855;48.840;9.188;2023-05-07T15:46:20;17.90;99.90
11599;DHT22;5855;48.840;9.188;2023-05-07T15:48:48;18.00;99.90
11599;DHT22;5855;48.840;9.188;2023-05-07T15:51:15;18.10;99.90
11599;DHT22;5855;48.840;9.188;2023-05-07T15:53:43;18.20;99.90